createdAt,value
2018-09-12T00:00:17.938Z,65.74
2018-09-12T00:02:45.787Z,65.59
2018-09-12T00:05:13.711Z,64.82
2018-09-12T00:07:42.676Z,65.80
2018-09-12T00:10:10.627Z,67.51
2018-09-12T00:12:38.486Z,67.05
2018-09-12T00:15:06.389Z,65.68
2018-09-12T00:17:34.315Z,66.94
2018-09-12T00:20:07.433Z,66.71
2018-09-12T00:22:36.003Z,66.70
2018-09-12T00:25:03.929Z,67.88
2018-09-12T00:27:32.532Z,65.28
2018-09-12T00:30:00.405Z,63.97
2018-09-12T00:32:28.207Z,66.09
2018-09-12T00:34:56.304Z,63.69
2018-09-12T00:37:24.162Z,64.66
2018-09-12T00:39:52.023Z,64.92
2018-09-12T00:42:19.827Z,64.40
2018-09-12T00:44:47.713Z,67.11
2018-09-12T00:47:15.547Z,65.25
2018-09-12T00:49:43.385Z,63.00
2018-09-12T00:52:11.201Z,64.78
2018-09-12T00:54:39.103Z,62.60
2018-09-12T00:57:06.956Z,61.75
2018-09-12T00:59:34.877Z,65.47
2018-09-12T01:02:02.756Z,65.28
2018-09-12T01:04:30.561Z,68.72
2018-09-12T01:06:58.428Z,64.83
2018-09-12T01:09:26.268Z,64.88
2018-09-12T01:11:54.059Z,64.04
2018-09-12T01:14:21.959Z,63.21
2018-09-12T01:16:54.772Z,64.23
2018-09-12T01:19:22.591Z,62.88
2018-09-12T01:21:50.532Z,65.68
2018-09-12T01:24:18.333Z,63.70
2018-09-12T01:26:46.269Z,64.87
2018-09-12T01:29:14.082Z,65.17
2018-09-12T01:31:41.906Z,64.16
2018-09-12T01:34:13.656Z,64.62
2018-09-12T01:36:41.611Z,65.96
2018-09-12T01:39:10.084Z,65.97
2018-09-12T01:41:38.048Z,62.75
2018-09-12T01:44:06.105Z,64.57
2018-09-12T01:46:33.986Z,68.26
2018-09-12T01:49:01.775Z,64.91
2018-09-12T01:51:29.555Z,66.54
2018-09-12T01:53:57.375Z,66.12
2018-09-12T01:56:25.216Z,63.57
2018-09-12T01:58:53.129Z,65.50
2018-09-12T02:01:21.043Z,67.64
2018-09-12T02:03:48.883Z,66.46
2018-09-12T02:06:16.732Z,63.40
2018-09-12T02:08:44.563Z,63.39
2018-09-12T02:11:12.451Z,66.31
2018-09-12T02:13:40.257Z,66.11
2018-09-12T02:16:08.247Z,67.30
2018-09-12T02:18:36.244Z,69.43
2018-09-12T02:21:04.095Z,70.64
2018-09-12T02:23:31.977Z,68.64
2018-09-12T02:25:59.815Z,69.54
2018-09-12T02:28:27.588Z,66.66
2018-09-12T02:30:55.460Z,68.07
2018-09-12T02:33:23.376Z,70.39
2018-09-12T02:35:57.131Z,69.09
2018-09-12T02:38:25.038Z,70.22
2018-09-12T02:40:52.936Z,69.17
2018-09-12T02:43:20.947Z,69.05
2018-09-12T02:45:48.802Z,68.00
2018-09-12T02:48:16.687Z,71.04
2018-09-12T02:50:44.586Z,72.03
2018-09-12T02:53:12.451Z,71.33
2018-09-12T02:55:40.327Z,72.35
2018-09-12T02:58:08.119Z,68.77
2018-09-12T03:00:39.952Z,72.61
2018-09-12T03:03:07.940Z,71.62
2018-09-12T03:05:35.818Z,67.58
2018-09-12T03:08:03.823Z,74.12
2018-09-12T03:10:31.576Z,73.14
2018-09-12T03:12:59.364Z,73.93
2018-09-12T03:15:27.235Z,71.43
2018-09-12T03:17:55.072Z,71.75
2018-09-12T03:20:22.931Z,70.69
2018-09-12T03:22:50.733Z,73.64
2018-09-12T03:25:18.503Z,70.47
2018-09-12T03:27:46.296Z,74.37
2018-09-12T03:30:14.182Z,70.69
2018-09-12T03:32:42.002Z,72.56
2018-09-12T03:35:09.881Z,71.56
2018-09-12T03:37:37.743Z,73.22
2018-09-12T03:40:06.117Z,71.36
2018-09-12T03:42:33.946Z,71.52
2018-09-12T03:45:01.728Z,71.03
2018-09-12T03:47:29.564Z,69.77
2018-09-12T03:49:57.389Z,71.93
2018-09-12T03:52:25.232Z,70.06
2018-09-12T03:54:53.104Z,72.23
2018-09-12T03:57:20.881Z,73.87
2018-09-12T03:59:48.729Z,73.41
2018-09-12T04:02:16.524Z,72.44
2018-09-12T04:04:44.346Z,71.14
2018-09-12T04:07:12.176Z,71.99
2018-09-12T04:09:39.975Z,69.91
2018-09-12T04:12:07.901Z,70.04
2018-09-12T04:14:35.652Z,69.60
2018-09-12T04:17:03.740Z,73.58
2018-09-12T04:19:31.567Z,74.62
2018-09-12T04:21:59.447Z,72.84
2018-09-12T04:24:27.393Z,73.21
2018-09-12T04:26:55.153Z,72.87
2018-09-12T04:29:23.020Z,72.73
2018-09-12T04:31:50.786Z,73.45
2018-09-12T04:34:18.584Z,72.56
2018-09-12T04:36:46.382Z,71.21
2018-09-12T04:39:14.155Z,72.12
2018-09-12T04:41:42.071Z,74.26
2018-09-12T04:44:09.928Z,75.39
2018-09-12T04:46:37.791Z,75.75
2018-09-12T04:49:05.809Z,72.40
2018-09-12T04:51:33.636Z,74.55
2018-09-12T04:54:01.472Z,72.63
2018-09-12T04:56:29.326Z,72.10
2018-09-12T04:58:57.203Z,71.79
2018-09-12T05:01:25.036Z,70.49
2018-09-12T05:03:53.100Z,70.32
2018-09-12T05:06:21.049Z,70.23
2018-09-12T05:08:49.391Z,71.66
2018-09-12T05:11:17.359Z,72.18
2018-09-12T05:13:45.169Z,72.98
2018-09-12T05:16:13.179Z,73.34
2018-09-12T05:18:41.075Z,75.80
2018-09-12T05:21:08.919Z,76.89
2018-09-12T05:23:36.695Z,78.04
2018-09-12T05:26:04.828Z,78.26
2018-09-12T05:28:32.894Z,77.04
2018-09-12T05:31:00.691Z,75.63
2018-09-12T05:33:28.653Z,75.78
2018-09-12T05:35:56.443Z,74.35
2018-09-12T05:38:24.516Z,74.60
2018-09-12T05:40:52.370Z,74.78
2018-09-12T05:43:20.164Z,79.19
2018-09-12T05:45:48.008Z,74.95
2018-09-12T05:48:15.865Z,75.65
2018-09-12T05:50:43.709Z,77.18
2018-09-12T05:53:11.594Z,75.07
2018-09-12T05:55:39.494Z,76.61
2018-09-12T05:58:07.339Z,75.85
2018-09-12T06:00:35.156Z,76.94
2018-09-12T06:03:02.992Z,77.30
2018-09-12T06:05:30.884Z,77.03
2018-09-12T06:07:58.752Z,78.36
2018-09-12T06:10:26.625Z,77.79
2018-09-12T06:12:54.412Z,76.75
2018-09-12T06:15:22.300Z,76.71
2018-09-12T06:17:50.233Z,78.23
2018-09-12T06:20:18.119Z,77.20
2018-09-12T06:22:45.974Z,77.55
2018-09-12T06:25:14.595Z,77.01
2018-09-12T06:27:42.487Z,76.73
2018-09-12T06:30:10.343Z,76.38
2018-09-12T06:32:38.144Z,76.66
2018-09-12T06:35:06.175Z,75.77
2018-09-12T06:37:33.976Z,75.30
2018-09-12T06:40:01.829Z,74.06
2018-09-12T06:42:29.637Z,74.96
2018-09-12T06:44:57.455Z,73.93
2018-09-12T06:47:25.217Z,74.06
2018-09-12T06:49:53.133Z,73.42
2018-09-12T06:52:21.267Z,73.77
2018-09-12T06:54:49.937Z,74.05
2018-09-12T06:57:17.702Z,73.79
2018-09-12T06:59:45.490Z,73.14
2018-09-12T07:02:13.336Z,72.72
2018-09-12T07:04:41.195Z,71.85
2018-09-12T07:07:08.997Z,72.33
2018-09-12T07:09:36.906Z,72.05
2018-09-12T07:12:04.835Z,71.15
2018-09-12T07:14:32.759Z,71.20
2018-09-12T07:17:00.607Z,70.83
2018-09-12T07:19:28.542Z,69.71
2018-09-12T07:21:56.376Z,69.31
2018-09-12T07:24:24.169Z,69.35
2018-09-12T07:26:51.993Z,68.21
2018-09-12T07:29:19.866Z,68.25
2018-09-12T07:31:47.712Z,67.96
2018-09-12T07:34:15.521Z,67.17
2018-09-12T07:36:43.344Z,67.61
2018-09-12T07:39:15.131Z,67.44
2018-09-12T07:41:43.153Z,66.36
2018-09-12T07:44:10.896Z,65.92
2018-09-12T07:46:38.771Z,65.99
2018-09-12T07:49:07.301Z,66.09
2018-09-12T07:51:35.319Z,65.81
2018-09-12T07:54:03.176Z,64.35
2018-09-12T07:56:30.956Z,63.55
2018-09-12T07:59:01.889Z,63.53
2018-09-12T08:01:29.811Z,62.59
2018-09-12T08:03:57.679Z,60.83
2018-09-12T08:06:25.500Z,62.54
2018-09-12T08:08:53.460Z,62.93
2018-09-12T08:11:21.409Z,60.57
2018-09-12T08:13:49.624Z,60.67
2018-09-12T08:16:17.813Z,59.42
2018-09-12T08:18:45.691Z,59.60
2018-09-12T08:21:13.563Z,60.28
2018-09-12T08:23:41.483Z,59.87
2018-09-12T08:26:09.466Z,60.33
2018-09-12T08:28:37.357Z,59.81
2018-09-12T08:31:05.138Z,59.22
2018-09-12T08:33:33.005Z,59.85
2018-09-12T08:36:00.872Z,56.63
2018-09-12T08:38:28.684Z,57.98
2018-09-12T08:40:56.604Z,58.27
2018-09-12T08:43:24.455Z,57.83
2018-09-12T08:45:52.252Z,56.58
2018-09-12T08:48:20.119Z,55.28
2018-09-12T08:50:49.602Z,51.51
2018-09-12T08:53:17.990Z,52.71
2018-09-12T08:55:46.496Z,52.37
2018-09-12T08:58:14.389Z,48.74
2018-09-12T09:00:42.172Z,49.20
2018-09-12T09:03:09.987Z,51.25
2018-09-12T09:05:37.884Z,50.01
2018-09-12T09:08:05.737Z,51.36
2018-09-12T09:10:33.560Z,51.27
2018-09-12T09:13:01.320Z,50.62
2018-09-12T09:15:29.214Z,50.44
2018-09-12T09:17:56.995Z,51.58
2018-09-12T09:20:25.096Z,48.53
2018-09-12T09:22:53.073Z,48.44
2018-09-12T09:25:20.867Z,49.00
2018-09-12T09:27:48.708Z,49.57
2018-09-12T09:30:16.524Z,50.29
2018-09-12T09:32:44.478Z,46.92
2018-09-12T09:35:12.231Z,48.29
2018-09-12T09:37:40.048Z,48.23
2018-09-12T09:40:08.963Z,44.42
2018-09-12T09:42:37.024Z,47.52
2018-09-12T09:45:05.367Z,46.20
2018-09-12T09:47:33.120Z,43.63
2018-09-12T09:50:00.935Z,42.98
2018-09-12T09:52:28.732Z,42.49
2018-09-12T09:54:56.616Z,45.52
2018-09-12T09:57:24.407Z,46.82
2018-09-12T09:59:52.848Z,44.19
2018-09-12T10:02:26.272Z,43.58
2018-09-12T10:04:59.796Z,41.88
2018-09-12T10:07:33.287Z,44.31
2018-09-12T10:10:03.671Z,41.14
2018-09-12T10:12:32.276Z,44.58
2018-09-12T10:15:00.870Z,42.84
2018-09-12T10:17:28.677Z,41.48
2018-09-12T10:19:56.483Z,41.20
2018-09-12T10:22:24.303Z,40.84
2018-09-12T10:24:52.091Z,40.15
2018-09-12T10:27:19.889Z,41.03
2018-09-12T10:29:47.708Z,40.82
2018-09-12T10:32:15.536Z,39.79
2018-09-12T10:34:43.933Z,38.77
2018-09-12T10:37:13.587Z,37.76
2018-09-12T10:39:41.355Z,37.29
2018-09-12T10:42:09.298Z,36.10
2018-09-12T10:44:37.040Z,35.74
2018-09-12T10:47:05.765Z,33.03
2018-09-12T10:49:33.611Z,34.89
2018-09-12T10:52:05.293Z,31.52
2018-09-12T10:54:34.884Z,32.76
2018-09-12T10:57:02.679Z,30.17
2018-09-12T10:59:30.488Z,29.24
2018-09-12T11:01:58.312Z,27.34
2018-09-12T11:04:26.214Z,27.81
2018-09-12T11:06:54.050Z,25.97
2018-09-12T11:09:21.920Z,27.17
2018-09-12T11:11:49.740Z,25.78
2018-09-12T11:14:17.517Z,25.98
2018-09-12T11:16:45.343Z,24.57
2018-09-12T11:19:13.115Z,24.25
2018-09-12T11:21:40.991Z,25.19
2018-09-12T11:24:08.861Z,24.16
2018-09-12T11:26:36.679Z,24.01
2018-09-12T11:29:04.489Z,23.11
2018-09-12T11:31:32.300Z,25.91
2018-09-12T11:34:00.091Z,23.60
2018-09-12T11:36:27.945Z,22.86
2018-09-12T11:38:55.811Z,23.06
2018-09-12T11:41:23.640Z,24.10
2018-09-12T11:43:51.403Z,23.82
2018-09-12T11:46:19.230Z,24.21
2018-09-12T11:48:47.023Z,23.68
2018-09-12T11:51:14.820Z,24.58
2018-09-12T11:53:42.668Z,23.56
2018-09-12T11:56:10.431Z,24.02
2018-09-12T11:58:38.219Z,23.76
2018-09-12T12:01:06.552Z,23.55
2018-09-12T12:03:34.370Z,23.05
2018-09-12T12:06:02.146Z,22.87
2018-09-12T12:08:29.903Z,22.34
2018-09-12T12:10:57.750Z,23.34
2018-09-12T12:13:25.515Z,22.59
2018-09-12T12:15:53.387Z,22.64
2018-09-12T12:18:25.687Z,23.00
2018-09-12T12:20:53.551Z,23.79
2018-09-12T12:23:21.394Z,23.40
2018-09-12T12:25:49.155Z,22.66
2018-09-12T12:28:17.076Z,23.57
2018-09-12T12:30:44.976Z,23.05
2018-09-12T12:33:12.819Z,24.04
2018-09-12T12:35:40.683Z,22.80
2018-09-12T12:38:08.586Z,23.30
2018-09-12T12:40:36.457Z,24.05
2018-09-12T12:43:04.208Z,23.58
2018-09-12T12:45:32.036Z,24.36
2018-09-12T12:47:59.826Z,24.61
2018-09-12T12:50:27.647Z,24.43
2018-09-12T12:52:55.412Z,23.96
2018-09-12T12:55:23.280Z,22.27
2018-09-12T12:57:51.080Z,23.14
2018-09-12T13:00:23.042Z,23.06
2018-09-12T13:02:50.912Z,22.62
2018-09-12T13:05:18.736Z,24.41
2018-09-12T13:07:46.543Z,24.68
2018-09-12T13:10:14.386Z,23.61
2018-09-12T13:12:42.185Z,24.11
2018-09-12T13:15:12.504Z,24.00
2018-09-12T13:17:40.380Z,25.31
2018-09-12T13:20:08.175Z,25.13
2018-09-12T13:22:36.071Z,24.25
2018-09-12T13:25:04.047Z,24.66
2018-09-12T13:27:37.008Z,25.54
2018-09-12T13:30:05.243Z,23.53
2018-09-12T13:32:33.137Z,25.22
2018-09-12T13:35:00.908Z,25.85
2018-09-12T13:37:28.709Z,26.33
2018-09-12T13:39:56.543Z,24.92
2018-09-12T13:42:24.316Z,26.55
2018-09-12T13:44:52.115Z,25.45
2018-09-12T13:47:19.924Z,24.75
2018-09-12T13:49:47.756Z,25.14
2018-09-12T13:52:15.496Z,25.64
2018-09-12T13:54:43.283Z,25.81
2018-09-12T13:57:15.241Z,25.30
2018-09-12T13:59:43.048Z,25.24
2018-09-12T14:02:21.223Z,25.04
2018-09-12T14:04:50.134Z,26.86
2018-09-12T14:07:18.028Z,26.92
2018-09-12T14:09:45.962Z,25.88
2018-09-12T14:12:13.799Z,26.29
2018-09-12T14:14:41.628Z,27.08
2018-09-12T14:17:09.480Z,27.02
2018-09-12T14:19:37.287Z,25.96
2018-09-12T14:22:05.156Z,26.73
2018-09-12T14:24:32.968Z,26.55
2018-09-12T14:27:00.807Z,26.99
2018-09-12T14:29:28.631Z,26.43
2018-09-12T14:31:56.499Z,26.76
2018-09-12T14:34:24.300Z,26.49
2018-09-12T14:36:52.210Z,26.58
2018-09-12T14:39:20.079Z,26.88
2018-09-12T14:41:47.823Z,26.35
2018-09-12T14:44:15.647Z,25.19
2018-09-12T14:46:43.443Z,26.03
2018-09-12T14:49:11.253Z,26.11
2018-09-12T14:51:39.707Z,25.35
2018-09-12T14:54:07.647Z,25.82
2018-09-12T14:56:35.442Z,26.37
2018-09-12T14:59:03.296Z,26.76
2018-09-12T15:01:31.087Z,25.56
2018-09-12T15:03:58.846Z,24.97
2018-09-12T15:06:26.696Z,25.40
2018-09-12T15:08:54.515Z,24.85
2018-09-12T15:11:22.323Z,25.60
2018-09-12T15:13:50.185Z,24.88
2018-09-12T15:16:17.935Z,24.89
2018-09-12T15:18:45.992Z,24.99
2018-09-12T15:21:13.859Z,25.63
2018-09-12T15:23:41.693Z,25.65
2018-09-12T15:26:09.504Z,25.09
2018-09-12T15:28:37.324Z,26.11
2018-09-12T15:31:05.311Z,26.39
2018-09-12T15:33:36.497Z,24.26
2018-09-12T15:36:04.321Z,25.28
2018-09-12T15:38:32.454Z,25.42
2018-09-12T15:41:00.267Z,24.02
2018-09-12T15:43:28.536Z,25.02
2018-09-12T15:45:56.975Z,24.38
2018-09-12T15:48:24.737Z,25.87
2018-09-12T15:50:52.516Z,25.87
2018-09-12T15:53:20.683Z,25.30
2018-09-12T15:55:48.448Z,24.49
2018-09-12T15:58:16.286Z,25.72
2018-09-12T16:00:44.120Z,25.89
2018-09-12T16:03:12.939Z,25.44
2018-09-12T16:05:40.899Z,24.34
2018-09-12T16:08:08.700Z,25.88
2018-09-12T16:10:36.904Z,25.76
2018-09-12T16:13:04.907Z,24.62
2018-09-12T16:15:32.764Z,25.47
2018-09-12T16:18:00.558Z,25.43
2018-09-12T16:20:29.092Z,25.27
2018-09-12T16:22:57.645Z,25.99
2018-09-12T16:25:25.511Z,26.39
2018-09-12T16:27:53.777Z,25.50
2018-09-12T16:30:21.596Z,26.29
2018-09-12T16:32:49.362Z,25.67
2018-09-12T16:35:17.215Z,25.82
2018-09-12T16:37:45.064Z,25.93
2018-09-12T16:40:12.987Z,26.13
2018-09-12T16:42:40.735Z,26.38
2018-09-12T16:45:08.767Z,26.12
2018-09-12T16:47:36.571Z,26.14
2018-09-12T16:50:04.961Z,27.08
2018-09-12T16:52:33.067Z,26.59
2018-09-12T16:55:00.897Z,27.07
2018-09-12T16:57:30.126Z,26.26
2018-09-12T16:59:57.987Z,26.42
2018-09-12T17:02:25.771Z,27.38
2018-09-12T17:04:53.540Z,26.70
2018-09-12T17:07:21.327Z,27.23
2018-09-12T17:09:49.343Z,27.17
2018-09-12T17:12:17.572Z,27.14
2018-09-12T17:14:45.339Z,28.04
2018-09-12T17:17:13.131Z,28.00
2018-09-12T17:19:45.428Z,27.35
2018-09-12T17:22:13.459Z,27.81
2018-09-12T17:24:41.289Z,28.75
2018-09-12T17:27:09.203Z,28.29
2018-09-12T17:29:36.999Z,29.17
2018-09-12T17:32:04.869Z,28.99
2018-09-12T17:34:35.310Z,29.44
2018-09-12T17:37:03.305Z,29.31
2018-09-12T17:39:31.225Z,29.39
2018-09-12T17:41:59.075Z,29.26
2018-09-12T17:44:26.915Z,29.39
2018-09-12T17:46:54.711Z,30.01
2018-09-12T17:49:22.491Z,30.74
2018-09-12T17:51:50.304Z,31.01
2018-09-12T17:54:18.100Z,31.07
2018-09-12T17:56:45.919Z,30.92
2018-09-12T17:59:13.729Z,31.66
2018-09-12T18:01:41.475Z,31.60
2018-09-12T18:04:09.252Z,31.03
2018-09-12T18:06:37.141Z,31.87
2018-09-12T18:09:07.584Z,31.56
2018-09-12T18:11:35.473Z,31.88
2018-09-12T18:14:03.318Z,32.37
2018-09-12T18:16:31.152Z,32.64
2018-09-12T18:18:59.009Z,32.61
2018-09-12T18:21:26.807Z,32.95
2018-09-12T18:23:54.627Z,33.30
2018-09-12T18:26:22.396Z,33.86
2018-09-12T18:28:50.243Z,34.04
2018-09-12T18:31:18.071Z,34.47
2018-09-12T18:33:45.943Z,34.27
2018-09-12T18:36:14.373Z,34.93
2018-09-12T18:38:42.224Z,34.37
2018-09-12T18:41:10.112Z,35.81
2018-09-12T18:43:37.893Z,35.23
2018-09-12T18:46:05.843Z,34.93
2018-09-12T18:48:33.767Z,35.76
2018-09-12T18:51:13.189Z,34.75
2018-09-12T18:53:41.053Z,35.06
2018-09-12T18:56:09.067Z,35.32
2018-09-12T18:58:39.431Z,36.72
2018-09-12T19:01:08.113Z,36.12
2018-09-12T19:03:35.925Z,37.08
2018-09-12T19:06:05.484Z,37.15
2018-09-12T19:08:33.704Z,38.45
2018-09-12T19:11:02.415Z,37.82
2018-09-12T19:13:30.688Z,37.93
2018-09-12T19:16:00.016Z,40.00
2018-09-12T19:18:28.000Z,37.75
2018-09-12T19:20:56.746Z,40.27
2018-09-12T19:23:24.639Z,39.08
2018-09-12T19:25:52.463Z,40.88
2018-09-12T19:28:20.314Z,40.11
2018-09-12T19:30:48.313Z,40.79
2018-09-12T19:33:16.165Z,42.21
2018-09-12T19:35:44.101Z,41.17
2018-09-12T19:38:11.951Z,40.72
2018-09-12T19:40:39.705Z,41.76
2018-09-12T19:43:07.876Z,42.85
2018-09-12T19:45:35.789Z,41.50
2018-09-12T19:48:03.819Z,42.64
2018-09-12T19:50:31.636Z,42.10
2018-09-12T19:52:59.390Z,42.59
2018-09-12T19:55:27.265Z,43.96
2018-09-12T19:57:55.234Z,43.31
2018-09-12T20:00:23.466Z,45.15
2018-09-12T20:02:51.307Z,44.22
2018-09-12T20:05:19.220Z,46.23
2018-09-12T20:07:47.091Z,46.37
2018-09-12T20:10:14.959Z,47.44
2018-09-12T20:12:42.796Z,48.50
2018-09-12T20:15:10.674Z,47.67
2018-09-12T20:17:38.511Z,49.36
2018-09-12T20:20:06.460Z,48.83
2018-09-12T20:22:34.706Z,50.11
2018-09-12T20:25:02.500Z,50.58
2018-09-12T20:27:30.291Z,52.08
2018-09-12T20:29:58.193Z,51.29
2018-09-12T20:32:25.977Z,52.12
2018-09-12T20:34:53.824Z,53.75
2018-09-12T20:37:21.655Z,52.16
2018-09-12T20:39:49.470Z,53.02
2018-09-12T20:42:17.364Z,54.17
2018-09-12T20:44:45.131Z,54.58
2018-09-12T20:47:13.006Z,52.43
2018-09-12T20:49:40.819Z,54.63
2018-09-12T20:52:08.631Z,55.45
2018-09-12T20:54:36.451Z,55.54
2018-09-12T20:57:04.763Z,55.87
2018-09-12T20:59:32.492Z,54.95
2018-09-12T21:02:00.272Z,55.08
2018-09-12T21:04:28.130Z,55.95
2018-09-12T21:06:55.940Z,55.48
2018-09-12T21:09:23.671Z,55.45
2018-09-12T21:11:51.620Z,56.23
2018-09-12T21:14:19.423Z,55.88
2018-09-12T21:16:47.239Z,56.44
2018-09-12T21:19:15.011Z,57.93
2018-09-12T21:21:42.844Z,56.84
2018-09-12T21:24:10.700Z,56.66
2018-09-12T21:26:38.498Z,58.37
2018-09-12T21:29:06.283Z,58.45
2018-09-12T21:31:34.120Z,57.50
2018-09-12T21:34:01.970Z,58.55
2018-09-12T21:36:29.755Z,59.28
2018-09-12T21:38:57.570Z,58.98
2018-09-12T21:41:25.403Z,59.52
2018-09-12T21:43:53.176Z,60.06
2018-09-12T21:46:21.035Z,60.30
2018-09-12T21:48:48.879Z,58.24
2018-09-12T21:51:16.950Z,59.40
2018-09-12T21:53:46.361Z,60.18
2018-09-12T21:56:14.176Z,60.32
2018-09-12T21:58:42.044Z,60.82
2018-09-12T22:01:09.803Z,59.73
2018-09-12T22:03:37.551Z,61.35
2018-09-12T22:06:05.419Z,59.50
2018-09-12T22:08:33.161Z,60.63
2018-09-12T22:11:00.995Z,62.30
2018-09-12T22:13:28.764Z,61.77
2018-09-12T22:15:56.488Z,60.30
2018-09-12T22:18:24.347Z,60.11
2018-09-12T22:20:52.128Z,60.51
2018-09-12T22:23:20.063Z,61.95
2018-09-12T22:25:48.021Z,61.79
2018-09-12T22:28:15.787Z,61.99
2018-09-12T22:30:43.838Z,61.94
2018-09-12T22:33:11.655Z,61.71
2018-09-12T22:35:39.420Z,62.18
2018-09-12T22:38:07.256Z,63.32
2018-09-12T22:40:34.975Z,61.77
2018-09-12T22:43:02.815Z,63.22
2018-09-12T22:45:30.614Z,63.41
2018-09-12T22:47:58.476Z,62.74
2018-09-12T22:50:26.240Z,63.08
2018-09-12T22:52:54.037Z,62.79
2018-09-12T22:55:21.846Z,64.25
2018-09-12T22:57:49.730Z,64.05
2018-09-12T23:00:17.580Z,63.69
2018-09-12T23:02:45.388Z,62.77
2018-09-12T23:05:13.247Z,63.27
2018-09-12T23:07:41.033Z,63.78
2018-09-12T23:10:08.786Z,63.88
2018-09-12T23:12:36.594Z,64.61
2018-09-12T23:15:04.488Z,64.18
2018-09-12T23:17:32.283Z,65.34
2018-09-12T23:20:00.233Z,65.28
2018-09-12T23:22:28.048Z,64.43
2018-09-12T23:24:55.893Z,65.26
2018-09-12T23:27:23.716Z,64.86
2018-09-12T23:29:51.568Z,64.84
2018-09-12T23:32:19.319Z,66.09
2018-09-12T23:34:47.216Z,66.93
2018-09-12T23:37:17.940Z,65.91
2018-09-12T23:39:45.792Z,66.97
2018-09-12T23:42:13.680Z,65.94
2018-09-12T23:44:41.497Z,65.84
2018-09-12T23:47:09.331Z,66.77
2018-09-12T23:49:37.161Z,65.23
2018-09-12T23:52:04.983Z,66.80
2018-09-12T23:54:32.837Z,65.77
2018-09-12T23:57:00.615Z,65.82
2018-09-12T23:59:28.436Z,67.16
